sensor_id;sensor_type;location;lat;lon;timestamp;P1;P4;P2;P0;N10;N4;N25;N1;N05;TS
43196;SPS30;28816;49.852;18.282;2024-01-10T00:01:32;212.120000;;199.190000;178.090000;;;;;;
43196;SPS30;28816;49.852;18.282;2024-01-10T00:06:34;210.970000;;200.200000;178.200000;;;;;;
43196;SPS30;28816;49.852;18.282;2024-01-10T00:11:36;222.250000;;208.740000;184.000000;;;;;;
43196;SPS30;28816;49.852;18.282;2024-01-10T00:16:38;216.190000;;205.640000;184.050000;;;;;;
43196;SPS30;28816;49.852;18.282;2024-01-10T00:21:40;210.240000;;198.990000;178.790000;;;;;;
43196;SPS30;28816;49.852;18.282;2024-01-10T00:26:42;212.960000;;201.180000;179.900000;;;;;;
43196;SPS30;28816;49.852;18.282;2024-01-10T00:31:44;219.530000;;206.520000;183.210000;;;;;;
43196;SPS30;28816;49.852;18.282;2024-01-10T00:36:46;218.060000;;205.930000;182.940000;;;;;;
43196;SPS30;28816;49.852;18.282;2024-01-10T00:41:47;212.510000;;201.260000;179.050000;;;;;;
43196;SPS30;28816;49.852;18.282;2024-01-10T00:46:49;208.620000;;196.530000;175.580000;;;;;;
43196;SPS30;28816;49.852;18.282;2024-01-10T00:51:51;219.940000;;207.580000;185.190000;;;;;;
43196;SPS30;28816;49.852;18.282;2024-01-10T00:56:53;216.890000;;205.530000;182.860000;;;;;;
43196;SPS30;28816;49.852;18.282;2024-01-10T01:01:55;217.740000;;204.280000;181.340000;;;;;;
43196;SPS30;28816;49.852;18.282;2024-01-10T01:06:58;236.060000;;222.060000;196.580000;;;;;;
43196;SPS30;28816;49.852;18.282;2024-01-10T01:12:01;242.480000;;229.410000;203.120000;;;;;;
43196;SPS30;28816;49.852;18.282;2024-01-10T01:17:03;252.220000;;239.020000;211.680000;;;;;;
43196;SPS30;28816;49.852;18.282;2024-01-10T01:22:05;246.800000;;233.240000;207.340000;;;;;;
43196;SPS30;28816;49.852;18.282;2024-01-10T01:27:07;248.090000;;236.640000;211.420000;;;;;;
43196;SPS30;28816;49.852;18.282;2024-01-10T01:32:09;247.900000;;235.150000;210.170000;;;;;;
43196;SPS30;28816;49.852;18.282;2024-01-10T01:37:11;239.430000;;225.540000;201.860000;;;;;;
43196;SPS30;28816;49.852;18.282;2024-01-10T01:42:13;240.670000;;229.370000;206.480000;;;;;;
43196;SPS30;28816;49.852;18.282;2024-01-10T01:47:15;233.250000;;221.000000;197.060000;;;;;;
43196;SPS30;28816;49.852;18.282;2024-01-10T01:52:17;235.400000;;224.290000;199.920000;;;;;;
43196;SPS30;28816;49.852;18.282;2024-01-10T01:57:18;230.820000;;220.400000;197.040000;;;;;;
43196;SPS30;28816;49.852;18.282;2024-01-10T02:02:21;228.080000;;215.200000;190.000000;;;;;;
43196;SPS30;28816;49.852;18.282;2024-01-10T02:07:24;228.770000;;216.330000;192.090000;;;;;;
43196;SPS30;28816;49.852;18.282;2024-01-10T02:12:26;230.020000;;218.940000;196.170000;;;;;;
43196;SPS30;28816;49.852;18.282;2024-01-10T02:17:29;242.450000;;229.010000;203.000000;;;;;;
43196;SPS30;28816;49.852;18.282;2024-01-10T02:22:30;231.820000;;217.380000;191.840000;;;;;;
43196;SPS30;28816;49.852;18.282;2024-01-10T02:27:32;243.470000;;228.840000;200.300000;;;;;;
43196;SPS30;28816;49.852;18.282;2024-01-10T02:32:35;242.350000;;230.400000;206.210000;;;;;;
43196;SPS30;28816;49.852;18.282;2024-01-10T02:37:37;236.710000;;220.550000;192.660000;;;;;;
43196;SPS30;28816;49.852;18.282;2024-01-10T02:42:39;242.290000;;229.620000;205.350000;;;;;;
43196;SPS30;28816;49.852;18.282;2024-01-10T02:47:41;240.560000;;226.310000;199.950000;;;;;;
43196;SPS30;28816;49.852;18.282;2024-01-10T02:52:44;226.660000;;213.360000;188.650000;;;;;;
43196;SPS30;28816;49.852;18.282;2024-01-10T02:57:46;248.650000;;231.650000;203.460000;;;;;;
43196;SPS30;28816;49.852;18.282;2024-01-10T03:02:48;244.260000;;227.940000;198.750000;;;;;;
43196;SPS30;28816;49.852;18.282;2024-01-10T03:07:50;238.450000;;225.780000;200.370000;;;;;;
43196;SPS30;28816;49.852;18.282;2024-01-10T03:12:52;233.850000;;222.940000;200.160000;;;;;;
43196;SPS30;28816;49.852;18.282;2024-01-10T03:17:53;229.740000;;217.430000;193.850000;;;;;;
43196;SPS30;28816;49.852;18.282;2024-01-10T03:22:55;236.180000;;223.190000;197.900000;;;;;;
43196;SPS30;28816;49.852;18.282;2024-01-10T03:27:57;234.450000;;219.750000;191.870000;;;;;;
43196;SPS30;28816;49.852;18.282;2024-01-10T03:32:59;210.500000;;199.360000;178.260000;;;;;;
43196;SPS30;28816;49.852;18.282;2024-01-10T03:38:00;234.230000;;220.460000;196.180000;;;;;;
43196;SPS30;28816;49.852;18.282;2024-01-10T03:43:02;229.070000;;214.580000;188.250000;;;;;;
43196;SPS30;28816;49.852;18.282;2024-01-10T03:48:05;226.740000;;214.630000;191.360000;;;;;;
43196;SPS30;28816;49.852;18.282;2024-01-10T03:53:07;223.550000;;207.490000;180.930000;;;;;;
43196;SPS30;28816;49.852;18.282;2024-01-10T03:58:10;222.720000;;207.270000;182.150000;;;;;;
43196;SPS30;28816;49.852;18.282;2024-01-10T04:03:12;221.870000;;210.330000;187.710000;;;;;;
43196;SPS30;28816;49.852;18.282;2024-01-10T04:08:15;226.510000;;214.090000;191.050000;;;;;;
43196;SPS30;28816;49.852;18.282;2024-01-10T04:13:16;231.980000;;217.710000;193.420000;;;;;;
43196;SPS30;28816;49.852;18.282;2024-01-10T04:18:18;227.070000;;215.610000;191.680000;;;;;;
43196;SPS30;28816;49.852;18.282;2024-01-10T04:23:20;238.430000;;222.810000;195.380000;;;;;;
43196;SPS30;28816;49.852;18.282;2024-01-10T04:28:22;233.390000;;217.720000;191.320000;;;;;;
43196;SPS30;28816;49.852;18.282;2024-01-10T04:33:24;224.330000;;212.220000;188.130000;;;;;;
43196;SPS30;28816;49.852;18.282;2024-01-10T04:38:26;224.280000;;210.240000;184.360000;;;;;;
43196;SPS30;28816;49.852;18.282;2024-01-10T04:43:27;235.480000;;219.950000;193.260000;;;;;;
43196;SPS30;28816;49.852;18.282;2024-01-10T04:48:29;223.290000;;210.780000;187.280000;;;;;;
43196;SPS30;28816;49.852;18.282;2024-01-10T04:53:31;225.040000;;212.090000;187.910000;;;;;;
43196;SPS30;28816;49.852;18.282;2024-01-10T04:58:33;232.240000;;217.030000;190.290000;;;;;;
43196;SPS30;28816;49.852;18.282;2024-01-10T05:03:36;221.870000;;209.780000;187.050000;;;;;;
43196;SPS30;28816;49.852;18.282;2024-01-10T05:08:38;218.320000;;206.080000;182.840000;;;;;;
43196;SPS30;28816;49.852;18.282;2024-01-10T05:13:40;229.660000;;214.180000;187.070000;;;;;;
43196;SPS30;28816;49.852;18.282;2024-01-10T05:18:42;234.720000;;218.920000;190.020000;;;;;;
43196;SPS30;28816;49.852;18.282;2024-01-10T05:23:44;229.860000;;215.440000;189.350000;;;;;;
43196;SPS30;28816;49.852;18.282;2024-01-10T05:28:45;217.210000;;204.820000;181.120000;;;;;;
43196;SPS30;28816;49.852;18.282;2024-01-10T05:33:47;218.440000;;207.240000;184.260000;;;;;;
43196;SPS30;28816;49.852;18.282;2024-01-10T05:38:49;209.800000;;198.740000;176.560000;;;;;;
43196;SPS30;28816;49.852;18.282;2024-01-10T05:43:51;210.160000;;196.830000;175.530000;;;;;;
43196;SPS30;28816;49.852;18.282;2024-01-10T05:48:53;219.460000;;206.540000;184.090000;;;;;;
43196;SPS30;28816;49.852;18.282;2024-01-10T05:53:55;225.000000;;211.560000;187.110000;;;;;;
43196;SPS30;28816;49.852;18.282;2024-01-10T05:58:57;229.550000;;216.420000;192.760000;;;;;;
43196;SPS30;28816;49.852;18.282;2024-01-10T06:03:59;264.550000;;247.610000;216.460000;;;;;;
43196;SPS30;28816;49.852;18.282;2024-01-10T06:09:01;254.960000;;237.770000;207.580000;;;;;;
43196;SPS30;28816;49.852;18.282;2024-01-10T06:14:03;252.490000;;235.070000;206.000000;;;;;;
43196;SPS30;28816;49.852;18.282;2024-01-10T06:19:05;231.550000;;215.680000;189.060000;;;;;;
43196;SPS30;28816;49.852;18.282;2024-01-10T06:24:07;225.240000;;211.250000;186.190000;;;;;;
43196;SPS30;28816;49.852;18.282;2024-01-10T06:29:09;215.820000;;205.540000;184.360000;;;;;;
43196;SPS30;28816;49.852;18.282;2024-01-10T06:34:11;222.040000;;208.270000;184.650000;;;;;;
43196;SPS30;28816;49.852;18.282;2024-01-10T06:39:13;220.180000;;207.140000;184.800000;;;;;;
43196;SPS30;28816;49.852;18.282;2024-01-10T06:44:15;221.670000;;209.470000;186.120000;;;;;;
43196;SPS30;28816;49.852;18.282;2024-01-10T06:49:17;206.360000;;196.310000;176.310000;;;;;;
43196;SPS30;28816;49.852;18.282;2024-01-10T06:54:19;206.830000;;196.090000;174.210000;;;;;;
43196;SPS30;28816;49.852;18.282;2024-01-10T06:59:21;226.540000;;211.490000;185.500000;;;;;;
43196;SPS30;28816;49.852;18.282;2024-01-10T07:04:23;217.490000;;204.000000;180.200000;;;;;;
43196;SPS30;28816;49.852;18.282;2024-01-10T07:09:25;221.350000;;210.970000;189.450000;;;;;;
43196;SPS30;28816;49.852;18.282;2024-01-10T07:14:26;225.150000;;211.490000;185.510000;;;;;;
43196;SPS30;28816;49.852;18.282;2024-01-10T07:19:29;215.160000;;202.670000;179.740000;;;;;;
43196;SPS30;28816;49.852;18.282;2024-01-10T07:24:30;211.080000;;197.790000;174.320000;;;;;;
43196;SPS30;28816;49.852;18.282;2024-01-10T07:29:32;201.480000;;189.120000;167.550000;;;;;;
43196;SPS30;28816;49.852;18.282;2024-01-10T07:34:34;210.720000;;197.030000;173.760000;;;;;;
43196;SPS30;28816;49.852;18.282;2024-01-10T07:39:36;210.350000;;198.480000;176.210000;;;;;;
43196;SPS30;28816;49.852;18.282;2024-01-10T07:44:39;205.370000;;193.890000;173.430000;;;;;;
43196;SPS30;28816;49.852;18.282;2024-01-10T07:49:41;210.070000;;198.310000;174.740000;;;;;;
43196;SPS30;28816;49.852;18.282;2024-01-10T07:54:43;200.530000;;189.590000;168.610000;;;;;;
43196;SPS30;28816;49.852;18.282;2024-01-10T07:59:45;188.960000;;179.880000;161.670000;;;;;;
43196;SPS30;28816;49.852;18.282;2024-01-10T08:04:46;184.870000;;175.710000;156.930000;;;;;;
43196;SPS30;28816;49.852;18.282;2024-01-10T08:09:49;186.340000;;176.270000;157.020000;;;;;;
43196;SPS30;28816;49.852;18.282;2024-01-10T08:14:52;181.880000;;173.920000;156.800000;;;;;;
43196;SPS30;28816;49.852;18.282;2024-01-10T08:19:53;178.710000;;170.840000;154.280000;;;;;;
43196;SPS30;28816;49.852;18.282;2024-01-10T08:24:56;165.950000;;160.080000;145.730000;;;;;;
43196;SPS30;28816;49.852;18.282;2024-01-10T08:29:58;169.700000;;162.480000;147.030000;;;;;;
43196;SPS30;28816;49.852;18.282;2024-01-10T08:35:00;161.050000;;154.460000;140.740000;;;;;;
43196;SPS30;28816;49.852;18.282;2024-01-10T08:40:03;161.590000;;155.670000;140.570000;;;;;;
43196;SPS30;28816;49.852;18.282;2024-01-10T08:45:06;153.600000;;147.820000;133.750000;;;;;;
43196;SPS30;28816;49.852;18.282;2024-01-10T08:50:08;141.500000;;137.070000;125.010000;;;;;;
43196;SPS30;28816;49.852;18.282;2024-01-10T08:55:10;141.270000;;135.710000;121.750000;;;;;;
43196;SPS30;28816;49.852;18.282;2024-01-10T09:00:13;138.680000;;133.700000;121.400000;;;;;;
43196;SPS30;28816;49.852;18.282;2024-01-10T09:05:15;140.420000;;134.330000;121.540000;;;;;;
43196;SPS30;28816;49.852;18.282;2024-01-10T09:10:17;144.080000;;137.510000;124.370000;;;;;;
43196;SPS30;28816;49.852;18.282;2024-01-10T09:15:20;142.260000;;136.800000;124.460000;;;;;;
43196;SPS30;28816;49.852;18.282;2024-01-10T09:20:22;137.580000;;132.570000;121.020000;;;;;;
43196;SPS30;28816;49.852;18.282;2024-01-10T09:25:25;135.010000;;131.000000;119.560000;;;;;;
43196;SPS30;28816;49.852;18.282;2024-01-10T09:30:27;130.810000;;127.240000;116.500000;;;;;;
43196;SPS30;28816;49.852;18.282;2024-01-10T09:35:30;125.860000;;122.320000;111.510000;;;;;;
43196;SPS30;28816;49.852;18.282;2024-01-10T09:40:32;129.110000;;125.200000;114.680000;;;;;;
43196;SPS30;28816;49.852;18.282;2024-01-10T09:45:34;124.720000;;121.020000;110.960000;;;;;;
43196;SPS30;28816;49.852;18.282;2024-01-10T09:50:39;122.000000;;119.160000;110.190000;;;;;;
43196;SPS30;28816;49.852;18.282;2024-01-10T09:55:41;114.980000;;111.270000;101.600000;;;;;;
43196;SPS30;28816;49.852;18.282;2024-01-10T10:00:44;113.620000;;110.810000;102.140000;;;;;;
43196;SPS30;28816;49.852;18.282;2024-01-10T10:05:46;105.710000;;102.660000;94.820000;;;;;;
43196;SPS30;28816;49.852;18.282;2024-01-10T10:10:48;99.220000;;96.840000;89.310000;;;;;;
43196;SPS30;28816;49.852;18.282;2024-01-10T10:15:50;94.050000;;92.360000;85.370000;;;;;;
43196;SPS30;28816;49.852;18.282;2024-01-10T10:20:59;93.380000;;91.470000;84.980000;;;;;;
43196;SPS30;28816;49.852;18.282;2024-01-10T10:26:06;89.160000;;87.210000;80.630000;;;;;;
43196;SPS30;28816;49.852;18.282;2024-01-10T10:31:11;90.950000;;89.020000;82.710000;;;;;;
43196;SPS30;28816;49.852;18.282;2024-01-10T10:36:13;84.820000;;83.210000;76.850000;;;;;;
43196;SPS30;28816;49.852;18.282;2024-01-10T10:41:16;82.430000;;80.550000;74.180000;;;;;;
43196;SPS30;28816;49.852;18.282;2024-01-10T10:46:18;82.480000;;81.090000;76.330000;;;;;;
43196;SPS30;28816;49.852;18.282;2024-01-10T10:51:23;78.910000;;77.080000;72.010000;;;;;;
43196;SPS30;28816;49.852;18.282;2024-01-10T10:56:27;76.770000;;75.790000;70.840000;;;;;;
43196;SPS30;28816;49.852;18.282;2024-01-10T11:01:29;77.520000;;76.320000;70.170000;;;;;;
43196;SPS30;28816;49.852;18.282;2024-01-10T11:06:32;79.770000;;78.360000;73.320000;;;;;;
43196;SPS30;28816;49.852;18.282;2024-01-10T11:11:35;83.830000;;82.650000;76.380000;;;;;;
43196;SPS30;28816;49.852;18.282;2024-01-10T11:16:47;80.330000;;78.830000;73.350000;;;;;;
43196;SPS30;28816;49.852;18.282;2024-01-10T11:21:58;83.340000;;81.580000;75.190000;;;;;;
43196;SPS30;28816;49.852;18.282;2024-01-10T11:27:08;86.310000;;84.540000;78.710000;;;;;;
43196;SPS30;28816;49.852;18.282;2024-01-10T11:32:11;81.810000;;80.540000;75.030000;;;;;;
43196;SPS30;28816;49.852;18.282;2024-01-10T11:37:14;79.590000;;78.600000;72.920000;;;;;;
43196;SPS30;28816;49.852;18.282;2024-01-10T11:42:17;80.830000;;79.440000;73.400000;;;;;;
43196;SPS30;28816;49.852;18.282;2024-01-10T11:47:22;81.790000;;80.240000;74.070000;;;;;;
43196;SPS30;28816;49.852;18.282;2024-01-10T11:52:25;85.130000;;83.730000;77.940000;;;;;;
43196;SPS30;28816;49.852;18.282;2024-01-10T11:57:32;81.240000;;79.270000;73.280000;;;;;;
43196;SPS30;28816;49.852;18.282;2024-01-10T12:02:34;79.970000;;78.500000;73.260000;;;;;;
43196;SPS30;28816;49.852;18.282;2024-01-10T12:07:36;80.390000;;78.540000;72.320000;;;;;;
43196;SPS30;28816;49.852;18.282;2024-01-10T12:12:40;82.900000;;81.890000;76.300000;;;;;;
43196;SPS30;28816;49.852;18.282;2024-01-10T12:17:42;79.260000;;78.380000;72.650000;;;;;;
43196;SPS30;28816;49.852;18.282;2024-01-10T12:22:44;81.360000;;79.750000;74.010000;;;;;;
43196;SPS30;28816;49.852;18.282;2024-01-10T12:27:46;81.160000;;80.120000;74.340000;;;;;;
43196;SPS30;28816;49.852;18.282;2024-01-10T12:32:48;82.050000;;80.780000;75.650000;;;;;;
43196;SPS30;28816;49.852;18.282;2024-01-10T12:37:50;84.990000;;83.830000;77.950000;;;;;;
43196;SPS30;28816;49.852;18.282;2024-01-10T12:42:53;81.380000;;80.090000;74.140000;;;;;;
43196;SPS30;28816;49.852;18.282;2024-01-10T12:48:01;80.480000;;79.310000;74.220000;;;;;;
43196;SPS30;28816;49.852;18.282;2024-01-10T12:53:04;79.430000;;78.030000;73.150000;;;;;;
43196;SPS30;28816;49.852;18.282;2024-01-10T12:58:06;79.570000;;78.380000;72.700000;;;;;;
43196;SPS30;28816;49.852;18.282;2024-01-10T13:03:08;82.530000;;80.670000;75.050000;;;;;;
43196;SPS30;28816;49.852;18.282;2024-01-10T13:08:10;82.730000;;81.620000;75.980000;;;;;;
43196;SPS30;28816;49.852;18.282;2024-01-10T13:13:12;82.950000;;81.980000;76.850000;;;;;;
43196;SPS30;28816;49.852;18.282;2024-01-10T13:18:14;76.170000;;75.100000;70.280000;;;;;;
43196;SPS30;28816;49.852;18.282;2024-01-10T13:23:16;78.490000;;76.760000;71.130000;;;;;;
43196;SPS30;28816;49.852;18.282;2024-01-10T13:28:18;80.180000;;78.880000;72.900000;;;;;;
43196;SPS30;28816;49.852;18.282;2024-01-10T13:33:20;71.610000;;70.950000;66.280000;;;;;;
43196;SPS30;28816;49.852;18.282;2024-01-10T13:38:22;73.510000;;72.630000;67.830000;;;;;;
43196;SPS30;28816;49.852;18.282;2024-01-10T13:43:24;76.460000;;75.270000;70.350000;;;;;;
43196;SPS30;28816;49.852;18.282;2024-01-10T13:48:27;76.040000;;75.610000;71.220000;;;;;;
43196;SPS30;28816;49.852;18.282;2024-01-10T13:53:29;82.370000;;80.730000;74.830000;;;;;;
43196;SPS30;28816;49.852;18.282;2024-01-10T13:58:31;86.490000;;84.450000;77.670000;;;;;;
43196;SPS30;28816;49.852;18.282;2024-01-10T14:03:33;82.030000;;81.170000;75.550000;;;;;;
43196;SPS30;28816;49.852;18.282;2024-01-10T14:08:36;83.150000;;81.110000;74.580000;;;;;;
43196;SPS30;28816;49.852;18.282;2024-01-10T14:13:37;63.000000;;62.150000;57.400000;;;;;;
43196;SPS30;28816;49.852;18.282;2024-01-10T14:18:40;62.540000;;61.900000;58.190000;;;;;;
43196;SPS30;28816;49.852;18.282;2024-01-10T14:23:41;65.100000;;63.880000;60.190000;;;;;;
43196;SPS30;28816;49.852;18.282;2024-01-10T14:28:43;66.710000;;65.630000;60.550000;;;;;;
43196;SPS30;28816;49.852;18.282;2024-01-10T14:33:46;67.420000;;66.550000;61.100000;;;;;;
43196;SPS30;28816;49.852;18.282;2024-01-10T14:38:48;71.040000;;69.830000;64.790000;;;;;;
43196;SPS30;28816;49.852;18.282;2024-01-10T14:43:50;73.940000;;72.620000;67.810000;;;;;;
43196;SPS30;28816;49.852;18.282;2024-01-10T14:48:52;76.950000;;75.510000;69.970000;;;;;;
43196;SPS30;28816;49.852;18.282;2024-01-10T14:53:54;75.360000;;74.150000;68.670000;;;;;;
43196;SPS30;28816;49.852;18.282;2024-01-10T14:58:57;76.160000;;75.130000;70.400000;;;;;;
43196;SPS30;28816;49.852;18.282;2024-01-10T15:03:59;79.210000;;78.320000;72.820000;;;;;;
43196;SPS30;28816;49.852;18.282;2024-01-10T15:09:01;85.300000;;83.270000;76.740000;;;;;;
43196;SPS30;28816;49.852;18.282;2024-01-10T15:14:04;89.820000;;88.420000;81.500000;;;;;;
43196;SPS30;28816;49.852;18.282;2024-01-10T15:19:06;96.570000;;95.040000;88.160000;;;;;;
43196;SPS30;28816;49.852;18.282;2024-01-10T15:24:08;94.580000;;92.900000;86.000000;;;;;;
43196;SPS30;28816;49.852;18.282;2024-01-10T15:29:11;103.310000;;100.000000;92.160000;;;;;;
43196;SPS30;28816;49.852;18.282;2024-01-10T15:34:13;99.320000;;97.560000;90.300000;;;;;;
43196;SPS30;28816;49.852;18.282;2024-01-10T15:39:15;97.470000;;94.830000;87.300000;;;;;;
43196;SPS30;28816;49.852;18.282;2024-01-10T15:44:17;101.900000;;99.820000;92.280000;;;;;;
43196;SPS30;28816;49.852;18.282;2024-01-10T15:49:20;104.790000;;102.700000;95.540000;;;;;;
43196;SPS30;28816;49.852;18.282;2024-01-10T15:54:22;101.010000;;99.280000;92.170000;;;;;;
43196;SPS30;28816;49.852;18.282;2024-01-10T15:59:24;101.300000;;99.560000;92.300000;;;;;;
43196;SPS30;28816;49.852;18.282;2024-01-10T16:04:27;150.220000;;143.380000;129.070000;;;;;;
43196;SPS30;28816;49.852;18.282;2024-01-10T16:09:29;150.590000;;144.750000;130.800000;;;;;;
43196;SPS30;28816;49.852;18.282;2024-01-10T16:14:31;145.720000;;139.020000;124.780000;;;;;;
43196;SPS30;28816;49.852;18.282;2024-01-10T16:19:34;145.460000;;139.080000;124.450000;;;;;;
43196;SPS30;28816;49.852;18.282;2024-01-10T16:24:36;127.340000;;122.990000;112.620000;;;;;;
43196;SPS30;28816;49.852;18.282;2024-01-10T16:29:38;122.510000;;117.510000;106.450000;;;;;;
43196;SPS30;28816;49.852;18.282;2024-01-10T16:34:41;118.640000;;114.900000;105.330000;;;;;;
43196;SPS30;28816;49.852;18.282;2024-01-10T16:39:43;108.760000;;106.980000;98.700000;;;;;;
43196;SPS30;28816;49.852;18.282;2024-01-10T16:44:45;98.510000;;96.520000;89.910000;;;;;;
43196;SPS30;28816;49.852;18.282;2024-01-10T16:49:48;111.910000;;109.250000;101.710000;;;;;;
43196;SPS30;28816;49.852;18.282;2024-01-10T16:54:50;108.370000;;105.910000;97.750000;;;;;;
43196;SPS30;28816;49.852;18.282;2024-01-10T16:59:53;111.480000;;108.830000;100.660000;;;;;;
43196;SPS30;28816;49.852;18.282;2024-01-10T17:04:55;108.430000;;105.340000;97.500000;;;;;;
43196;SPS30;28816;49.852;18.282;2024-01-10T17:09:57;113.230000;;110.030000;100.570000;;;;;;
43196;SPS30;28816;49.852;18.282;2024-01-10T17:15:00;119.750000;;116.340000;107.020000;;;;;;
43196;SPS30;28816;49.852;18.282;2024-01-10T17:20:03;125.010000;;121.330000;111.070000;;;;;;
43196;SPS30;28816;49.852;18.282;2024-01-10T17:25:05;125.880000;;122.390000;112.390000;;;;;;
43196;SPS30;28816;49.852;18.282;2024-01-10T17:30:08;123.070000;;119.430000;110.150000;;;;;;
43196;SPS30;28816;49.852;18.282;2024-01-10T17:35:10;117.260000;;114.710000;106.340000;;;;;;
43196;SPS30;28816;49.852;18.282;2024-01-10T17:40:13;114.140000;;111.100000;102.080000;;;;;;
43196;SPS30;28816;49.852;18.282;2024-01-10T17:45:15;112.030000;;109.570000;100.800000;;;;;;
43196;SPS30;28816;49.852;18.282;2024-01-10T17:50:18;109.080000;;105.880000;97.340000;;;;;;
43196;SPS30;28816;49.852;18.282;2024-01-10T17:55:20;109.250000;;106.600000;98.010000;;;;;;
43196;SPS30;28816;49.852;18.282;2024-01-10T18:00:22;108.000000;;105.870000;97.910000;;;;;;
43196;SPS30;28816;49.852;18.282;2024-01-10T18:05:24;111.800000;;108.680000;99.990000;;;;;;
43196;SPS30;28816;49.852;18.282;2024-01-10T18:10:26;123.910000;;120.980000;111.370000;;;;;;
43196;SPS30;28816;49.852;18.282;2024-01-10T18:15:28;125.610000;;123.640000;114.710000;;;;;;
43196;SPS30;28816;49.852;18.282;2024-01-10T18:20:30;123.110000;;118.950000;108.530000;;;;;;
43196;SPS30;28816;49.852;18.282;2024-01-10T18:25:33;122.760000;;118.900000;108.620000;;;;;;
43196;SPS30;28816;49.852;18.282;2024-01-10T18:30:35;105.700000;;103.380000;95.670000;;;;;;
43196;SPS30;28816;49.852;18.282;2024-01-10T18:35:38;110.690000;;108.280000;100.580000;;;;;;
43196;SPS30;28816;49.852;18.282;2024-01-10T18:40:40;114.530000;;110.840000;101.300000;;;;;;
43196;SPS30;28816;49.852;18.282;2024-01-10T18:45:43;120.880000;;117.320000;107.000000;;;;;;
43196;SPS30;28816;49.852;18.282;2024-01-10T18:50:45;115.700000;;110.940000;101.190000;;;;;;
43196;SPS30;28816;49.852;18.282;2024-01-10T18:55:48;114.450000;;111.110000;101.620000;;;;;;
43196;SPS30;28816;49.852;18.282;2024-01-10T19:00:50;113.540000;;110.390000;101.510000;;;;;;
43196;SPS30;28816;49.852;18.282;2024-01-10T19:05:53;110.560000;;108.220000;100.120000;;;;;;
43196;SPS30;28816;49.852;18.282;2024-01-10T19:10:54;108.990000;;105.980000;96.850000;;;;;;
43196;SPS30;28816;49.852;18.282;2024-01-10T19:15:57;107.070000;;104.550000;96.140000;;;;;;
43196;SPS30;28816;49.852;18.282;2024-01-10T19:21:00;110.400000;;106.440000;96.700000;;;;;;
43196;SPS30;28816;49.852;18.282;2024-01-10T19:26:02;112.740000;;108.780000;99.320000;;;;;;
43196;SPS30;28816;49.852;18.282;2024-01-10T19:31:05;108.750000;;106.250000;98.230000;;;;;;
43196;SPS30;28816;49.852;18.282;2024-01-10T19:36:07;106.880000;;103.590000;95.050000;;;;;;
43196;SPS30;28816;49.852;18.282;2024-01-10T19:41:10;104.640000;;102.060000;94.740000;;;;;;
43196;SPS30;28816;49.852;18.282;2024-01-10T19:46:18;104.470000;;102.040000;93.640000;;;;;;
43196;SPS30;28816;49.852;18.282;2024-01-10T19:51:20;102.460000;;99.160000;91.880000;;;;;;
43196;SPS30;28816;49.852;18.282;2024-01-10T19:56:22;106.600000;;103.990000;96.240000;;;;;;
43196;SPS30;28816;49.852;18.282;2024-01-10T20:01:25;112.360000;;109.670000;100.960000;;;;;;
43196;SPS30;28816;49.852;18.282;2024-01-10T20:06:27;112.880000;;109.230000;99.960000;;;;;;
43196;SPS30;28816;49.852;18.282;2024-01-10T20:11:30;108.270000;;105.660000;97.530000;;;;;;
43196;SPS30;28816;49.852;18.282;2024-01-10T20:16:32;114.400000;;111.330000;102.450000;;;;;;
43196;SPS30;28816;49.852;18.282;2024-01-10T20:21:34;117.710000;;113.470000;102.810000;;;;;;
43196;SPS30;28816;49.852;18.282;2024-01-10T20:26:37;119.280000;;117.200000;108.500000;;;;;;
43196;SPS30;28816;49.852;18.282;2024-01-10T20:31:39;119.760000;;116.520000;107.810000;;;;;;
43196;SPS30;28816;49.852;18.282;2024-01-10T20:36:42;120.520000;;117.330000;107.820000;;;;;;
43196;SPS30;28816;49.852;18.282;2024-01-10T20:41:44;121.900000;;117.550000;106.940000;;;;;;
43196;SPS30;28816;49.852;18.282;2024-01-10T20:46:47;123.490000;;119.790000;109.500000;;;;;;
43196;SPS30;28816;49.852;18.282;2024-01-10T20:51:50;132.040000;;128.420000;116.800000;;;;;;
43196;SPS30;28816;49.852;18.282;2024-01-10T20:56:52;135.230000;;129.800000;118.170000;;;;;;
43196;SPS30;28816;49.852;18.282;2024-01-10T21:01:53;135.230000;;131.180000;120.190000;;;;;;
43196;SPS30;28816;49.852;18.282;2024-01-10T21:06:56;129.870000;;125.210000;114.350000;;;;;;
43196;SPS30;28816;49.852;18.282;2024-01-10T21:11:58;125.460000;;121.390000;110.720000;;;;;;
43196;SPS30;28816;49.852;18.282;2024-01-10T21:17:00;122.790000;;119.040000;109.190000;;;;;;
43196;SPS30;28816;49.852;18.282;2024-01-10T21:22:03;120.580000;;117.270000;108.110000;;;;;;
43196;SPS30;28816;49.852;18.282;2024-01-10T21:27:05;119.820000;;115.420000;105.400000;;;;;;
43196;SPS30;28816;49.852;18.282;2024-01-10T21:32:08;122.850000;;118.620000;108.110000;;;;;;
43196;SPS30;28816;49.852;18.282;2024-01-10T21:37:11;119.550000;;116.270000;106.650000;;;;;;
43196;SPS30;28816;49.852;18.282;2024-01-10T21:42:13;118.970000;;115.100000;104.890000;;;;;;
43196;SPS30;28816;49.852;18.282;2024-01-10T21:47:15;118.040000;;115.080000;105.170000;;;;;;
43196;SPS30;28816;49.852;18.282;2024-01-10T21:52:18;114.610000;;112.090000;103.990000;;;;;;
43196;SPS30;28816;49.852;18.282;2024-01-10T21:57:20;114.960000;;112.040000;102.680000;;;;;;